Aviation Digital Data Service (ADDS)

Output produced by TAFs form (0109 UTC 21 October 2017)
found at http://www.aviationweather.gov/adds/tafs/
 
KCLT 210052Z 00000KT 10SM FEW250 16/10 A3022 RMK AO2 SLP231 T01610100
KCLT 202320Z 2100/2124 00000KT P6SM FEW250 
     FM211300 05004KT P6SM FEW250 
     FM211800 13004KT P6SM SCT250